createdAt,value
2019-04-01T00:01:08.112Z,7.30
2019-04-01T00:11:13.435Z,7.30
2019-04-01T00:21:18.941Z,7.30
2019-04-01T00:31:24.192Z,7.30
2019-04-01T00:41:29.457Z,7.30
2019-04-01T00:51:34.716Z,7.30
2019-04-01T01:01:40.038Z,7.30
2019-04-01T01:11:45.271Z,7.30
2019-04-01T01:21:50.531Z,7.20
2019-04-01T01:31:55.786Z,7.20
2019-04-01T01:42:01.316Z,7.10
2019-04-01T01:52:06.586Z,7.00
2019-04-01T02:02:11.944Z,6.90
2019-04-01T02:12:17.512Z,6.80
2019-04-01T02:22:23.299Z,6.70
2019-04-01T02:32:28.565Z,6.50
2019-04-01T02:42:34.285Z,6.40
2019-04-01T02:52:39.586Z,6.20
2019-04-01T03:02:45.053Z,6.00
2019-04-01T03:12:50.557Z,5.90
2019-04-01T03:22:56.229Z,5.70
2019-04-01T03:33:01.961Z,5.50
2019-04-01T03:43:07.488Z,5.50
2019-04-01T03:53:12.837Z,5.20
2019-04-01T04:03:18.156Z,5.00
2019-04-01T04:13:23.766Z,4.70
2019-04-01T04:23:29.067Z,4.50
2019-04-01T04:33:34.380Z,4.40
2019-04-01T04:43:39.952Z,4.30
2019-04-01T04:53:45.443Z,4.30
2019-04-01T05:03:50.757Z,4.20
2019-04-01T05:13:58.165Z,4.10
2019-04-01T05:24:03.925Z,4.10
2019-04-01T05:34:12.426Z,4.20
2019-04-01T05:44:17.758Z,4.30
2019-04-01T05:54:23.248Z,4.30
2019-04-01T06:04:28.570Z,4.50
2019-04-01T06:14:34.846Z,4.70
2019-04-01T06:24:40.390Z,4.80
2019-04-01T06:34:52.756Z,5.00
2019-04-01T06:44:53.036Z,5.20
2019-04-01T06:54:58.323Z,5.40
2019-04-01T07:05:03.765Z,5.70
2019-04-01T07:15:09.375Z,5.90
2019-04-01T07:25:15.043Z,6.30
2019-04-01T07:35:20.311Z,6.70
2019-04-01T07:45:25.606Z,7.10
2019-04-01T07:55:30.880Z,7.40
2019-04-01T08:05:36.537Z,7.80
2019-04-01T08:15:42.360Z,8.00
2019-04-01T08:25:48.196Z,8.30
2019-04-01T08:35:53.675Z,8.70
2019-04-01T08:45:59.088Z,9.00
2019-04-01T08:56:04.579Z,9.30
2019-04-01T09:06:09.971Z,9.70
2019-04-01T09:16:16.845Z,9.80
2019-04-01T09:26:22.115Z,10.20
2019-04-01T09:36:27.401Z,10.40
2019-04-01T09:46:32.967Z,10.80
2019-04-01T09:56:38.328Z,11.10
2019-04-01T10:06:43.611Z,11.30
2019-04-01T10:16:48.883Z,11.60
2019-04-01T10:26:54.204Z,11.80
2019-04-01T10:37:00.108Z,12.20
2019-04-01T10:47:05.511Z,12.60
2019-04-01T10:57:10.850Z,13.40
2019-04-01T11:07:16.216Z,15.50
2019-04-01T11:17:22.119Z,17.00
2019-04-01T11:27:27.667Z,18.20
2019-04-01T11:37:32.955Z,19.10
2019-04-01T11:47:38.262Z,20.20
2019-04-01T11:57:43.891Z,21.10
2019-04-01T12:07:49.325Z,21.80
2019-04-01T12:17:55.108Z,22.30
2019-04-01T12:28:01.048Z,21.60
2019-04-01T12:38:06.942Z,22.40
2019-04-01T12:48:12.331Z,22.20
2019-04-01T12:58:17.877Z,22.80
2019-04-01T13:08:24.229Z,22.90
2019-04-01T13:18:29.891Z,23.90
2019-04-01T13:28:35.307Z,24.20
2019-04-01T13:38:40.686Z,24.80
2019-04-01T13:48:56.862Z,23.90
2019-04-01T13:58:53.332Z,24.30
2019-04-01T14:09:00.606Z,23.60
2019-04-01T14:19:06.323Z,24.00
2019-04-01T14:29:11.655Z,24.00
2019-04-01T14:39:16.955Z,24.80
2019-04-01T14:49:22.495Z,27.50
2019-04-01T14:59:27.982Z,27.50
2019-04-01T15:09:33.571Z,27.30
2019-04-01T15:19:39.265Z,29.70
2019-04-01T15:29:44.562Z,31.10
2019-04-01T15:39:50.008Z,31.30
2019-04-01T15:49:55.416Z,29.20
2019-04-01T16:00:01.109Z,25.70
2019-04-01T16:10:06.815Z,21.40
2019-04-01T16:20:13.372Z,18.80
2019-04-01T16:30:18.963Z,17.60
2019-04-01T16:40:24.608Z,17.00
2019-04-01T16:50:29.938Z,16.50
2019-04-01T17:00:35.572Z,15.70
2019-04-01T17:10:40.924Z,15.30
2019-04-01T17:20:46.521Z,14.80
2019-04-01T17:30:51.799Z,14.50
2019-04-01T17:40:57.078Z,14.10
2019-04-01T17:51:02.360Z,13.90
2019-04-01T18:01:08.003Z,13.70
2019-04-01T18:11:15.861Z,13.50
2019-04-01T18:21:20.556Z,13.20
2019-04-01T18:31:25.859Z,13.10
2019-04-01T18:41:31.459Z,12.80
2019-04-01T18:51:37.007Z,12.70
2019-04-01T19:01:43.302Z,12.50
2019-04-01T19:12:03.036Z,12.20
2019-04-01T19:21:57.585Z,12.00
2019-04-01T19:32:03.499Z,11.80
2019-04-01T19:42:09.071Z,11.70
2019-04-01T19:52:14.720Z,11.60
2019-04-01T20:02:20.335Z,11.50
2019-04-01T20:12:25.687Z,11.40
2019-04-01T20:22:31.323Z,11.30
2019-04-01T20:32:36.840Z,11.10
2019-04-01T20:42:42.348Z,11.00
2019-04-01T20:52:47.648Z,10.80
2019-04-01T21:02:52.915Z,10.60
2019-04-01T21:12:58.183Z,10.50
2019-04-01T21:23:03.558Z,10.30
2019-04-01T21:33:08.835Z,10.10
2019-04-01T21:43:14.092Z,9.90
2019-04-01T21:53:20.243Z,9.70
2019-04-01T22:03:25.499Z,9.40
2019-04-01T22:13:30.836Z,9.20
2019-04-01T22:23:37.209Z,9.20
2019-04-01T22:33:42.468Z,9.20
2019-04-01T22:43:48.051Z,9.00
2019-04-01T22:53:54.355Z,8.90
2019-04-01T23:04:00.124Z,8.90
2019-04-01T23:14:05.570Z,8.60
2019-04-01T23:24:10.837Z,8.50
2019-04-01T23:34:16.135Z,8.00
2019-04-01T23:44:23.421Z,7.50
2019-04-01T23:54:31.027Z,7.20
